createdAt,value
2019-01-30T00:01:34.764Z,11.76
2019-01-30T00:04:25.238Z,11.78
2019-01-30T00:07:15.713Z,11.83
2019-01-30T00:10:06.364Z,11.89
2019-01-30T00:12:56.678Z,11.90
2019-01-30T00:15:56.148Z,11.90
2019-01-30T00:18:38.729Z,11.90
2019-01-30T00:21:29.333Z,12.00
2019-01-30T00:24:19.781Z,12.03
2019-01-30T00:27:10.688Z,12.08
2019-01-30T00:30:04.211Z,12.11
2019-01-30T00:32:53.524Z,12.14
2019-01-30T00:35:44.062Z,12.16
2019-01-30T00:38:34.496Z,12.18
2019-01-30T00:41:25.087Z,12.18
2019-01-30T00:44:16.641Z,12.21
2019-01-30T00:47:15.705Z,12.24
2019-01-30T00:49:59.436Z,12.32
2019-01-30T00:52:49.871Z,12.30
2019-01-30T00:55:41.495Z,12.32
2019-01-30T00:58:31.663Z,12.36
2019-01-30T01:01:22.258Z,12.15
2019-01-30T01:04:12.800Z,12.34
2019-01-30T01:07:03.002Z,12.42
2019-01-30T01:09:53.225Z,12.45
2019-01-30T01:12:43.622Z,12.47
2019-01-30T01:15:34.302Z,12.55
2019-01-30T01:18:24.933Z,12.58
2019-01-30T01:21:15.467Z,12.49
2019-01-30T01:24:06.015Z,12.47
2019-01-30T01:26:56.411Z,12.44
2019-01-30T01:29:46.829Z,12.39
2019-01-30T01:32:37.370Z,12.42
2019-01-30T01:35:27.968Z,12.42
2019-01-30T01:38:18.144Z,12.40
2019-01-30T01:41:08.581Z,12.39
2019-01-30T01:43:59.036Z,12.42
2019-01-30T01:46:49.475Z,12.44
2019-01-30T01:49:40.195Z,12.46
2019-01-30T01:52:30.757Z,12.38
2019-01-30T01:55:20.944Z,12.41
2019-01-30T01:58:11.598Z,12.43
2019-01-30T02:01:02.136Z,12.30
2019-01-30T02:03:53.202Z,12.40
2019-01-30T02:06:43.416Z,12.49
2019-01-30T02:09:33.902Z,12.46
2019-01-30T02:12:24.326Z,12.48
2019-01-30T02:15:17.146Z,12.37
2019-01-30T02:18:08.632Z,12.46
2019-01-30T02:20:58.926Z,12.50
2019-01-30T02:23:49.314Z,12.54
2019-01-30T02:26:40.058Z,12.55
2019-01-30T02:29:31.662Z,12.58
2019-01-30T02:32:22.375Z,12.55
2019-01-30T02:35:12.558Z,12.58
2019-01-30T02:38:02.807Z,12.50
2019-01-30T02:40:53.350Z,12.44
2019-01-30T02:43:43.566Z,12.31
2019-01-30T02:46:34.067Z,12.39
2019-01-30T02:49:24.520Z,12.29
2019-01-30T02:52:14.955Z,12.24
2019-01-30T02:55:05.541Z,12.23
2019-01-30T02:57:55.865Z,12.22
2019-01-30T03:00:58.536Z,12.06
2019-01-30T03:03:39.521Z,12.25
2019-01-30T03:06:30.007Z,12.18
2019-01-30T03:09:20.533Z,12.17
2019-01-30T03:12:11.106Z,12.18
2019-01-30T03:15:01.572Z,12.15
2019-01-30T03:17:52.084Z,12.09
2019-01-30T03:20:42.283Z,12.14
2019-01-30T03:23:32.789Z,12.12
2019-01-30T03:26:23.274Z,12.12
2019-01-30T03:29:14.518Z,12.17
2019-01-30T03:32:04.735Z,12.17
2019-01-30T03:34:54.931Z,12.15
2019-01-30T03:37:45.515Z,12.15
2019-01-30T03:40:36.179Z,12.13
2019-01-30T03:43:29.258Z,12.10
2019-01-30T03:46:19.916Z,12.14
2019-01-30T03:49:10.215Z,12.14
2019-01-30T03:52:00.641Z,12.17
2019-01-30T03:54:50.728Z,12.21
2019-01-30T03:57:41.689Z,12.24
2019-01-30T04:00:31.961Z,12.25
2019-01-30T04:03:22.522Z,12.24
2019-01-30T04:06:12.685Z,12.27
2019-01-30T04:09:04.350Z,12.22
2019-01-30T04:11:54.607Z,12.23
2019-01-30T04:14:45.577Z,12.22
2019-01-30T04:17:36.261Z,12.24
2019-01-30T04:20:26.955Z,12.19
2019-01-30T04:23:17.326Z,12.18
2019-01-30T04:26:07.760Z,12.21
2019-01-30T04:28:59.014Z,12.20
2019-01-30T04:31:49.545Z,12.27
2019-01-30T04:34:39.652Z,12.30
2019-01-30T04:37:29.959Z,12.26
2019-01-30T04:40:21.066Z,12.28
2019-01-30T04:43:11.517Z,12.21
2019-01-30T04:46:01.913Z,12.17
2019-01-30T04:48:52.497Z,12.20
2019-01-30T04:51:43.089Z,12.26
2019-01-30T04:54:33.749Z,12.33
2019-01-30T04:57:24.356Z,12.29
2019-01-30T05:00:16.984Z,12.31
2019-01-30T05:03:07.488Z,12.30
2019-01-30T05:05:58.298Z,12.30
2019-01-30T05:08:48.612Z,12.36
2019-01-30T05:11:39.168Z,12.35
2019-01-30T05:14:29.413Z,12.43
2019-01-30T05:17:19.702Z,12.51
2019-01-30T05:20:11.192Z,12.51
2019-01-30T05:23:01.819Z,12.46
2019-01-30T05:25:54.730Z,12.40
2019-01-30T05:28:45.235Z,12.36
2019-01-30T05:31:35.801Z,12.36
2019-01-30T05:34:28.172Z,12.38
2019-01-30T05:37:18.700Z,12.36
2019-01-30T05:40:11.592Z,12.38
2019-01-30T05:43:01.989Z,12.39
2019-01-30T05:45:52.651Z,12.41
2019-01-30T05:48:43.275Z,12.32
2019-01-30T05:51:33.941Z,12.29
2019-01-30T05:54:24.372Z,12.31
2019-01-30T05:57:14.547Z,12.27
2019-01-30T06:00:04.887Z,12.27
2019-01-30T06:02:55.109Z,12.25
2019-01-30T06:05:45.301Z,12.34
2019-01-30T06:08:35.805Z,12.34
2019-01-30T06:11:27.163Z,12.30
2019-01-30T06:14:18.851Z,12.34
2019-01-30T06:17:09.767Z,12.34
2019-01-30T06:20:00.491Z,12.34
2019-01-30T06:22:51.064Z,12.32
2019-01-30T06:25:41.778Z,12.32
2019-01-30T06:28:32.376Z,12.39
2019-01-30T06:31:22.572Z,12.41
2019-01-30T06:34:12.785Z,12.41
2019-01-30T06:37:03.674Z,12.37
2019-01-30T06:39:54.178Z,12.47
2019-01-30T06:42:44.725Z,12.53
2019-01-30T06:45:35.182Z,12.56
2019-01-30T06:48:25.439Z,12.60
2019-01-30T06:51:15.828Z,12.67
2019-01-30T06:54:06.141Z,12.63
2019-01-30T06:56:56.771Z,12.64
2019-01-30T06:59:47.385Z,12.75
2019-01-30T07:02:37.732Z,12.85
2019-01-30T07:05:28.182Z,12.97
2019-01-30T07:08:18.647Z,13.03
2019-01-30T07:11:10.811Z,12.98
2019-01-30T07:14:01.498Z,13.02
2019-01-30T07:16:52.657Z,13.02
2019-01-30T07:19:43.062Z,13.04
2019-01-30T07:22:33.287Z,13.14
2019-01-30T07:25:24.190Z,13.00
2019-01-30T07:28:14.852Z,13.01
2019-01-30T07:31:05.328Z,12.99
2019-01-30T07:33:56.112Z,13.37
2019-01-30T07:36:46.715Z,14.29
2019-01-30T07:39:37.150Z,15.20
2019-01-30T07:42:30.381Z,15.41
2019-01-30T07:45:21.696Z,15.30
2019-01-30T07:48:12.120Z,15.29
2019-01-30T07:51:02.892Z,15.11
2019-01-30T07:53:54.860Z,14.72
2019-01-30T07:56:45.523Z,14.61
2019-01-30T07:59:35.931Z,14.43
2019-01-30T08:02:26.405Z,14.45
2019-01-30T08:05:17.011Z,14.57
2019-01-30T08:08:07.584Z,15.19
2019-01-30T08:10:58.030Z,16.34
2019-01-30T08:13:48.255Z,17.51
2019-01-30T08:16:38.968Z,18.61
2019-01-30T08:19:29.716Z,18.77
2019-01-30T08:22:19.924Z,18.39
2019-01-30T08:25:11.122Z,17.46
2019-01-30T08:28:01.696Z,16.54
2019-01-30T08:30:52.748Z,15.91
2019-01-30T08:33:42.939Z,15.55
2019-01-30T08:36:33.407Z,15.32
2019-01-30T08:39:23.924Z,15.12
2019-01-30T08:42:14.427Z,15.05
2019-01-30T08:45:05.256Z,15.05
2019-01-30T08:47:55.820Z,14.90
2019-01-30T08:50:46.240Z,14.89
2019-01-30T08:53:36.799Z,14.88
2019-01-30T08:56:27.386Z,14.81
2019-01-30T08:59:17.827Z,14.62
2019-01-30T09:02:08.212Z,14.38
2019-01-30T09:04:58.559Z,14.31
2019-01-30T09:07:48.985Z,14.18
2019-01-30T09:10:39.284Z,14.09
2019-01-30T09:13:29.772Z,14.01
2019-01-30T09:16:20.483Z,13.99
2019-01-30T09:19:11.308Z,13.95
2019-01-30T09:22:02.165Z,14.04
2019-01-30T09:24:53.406Z,14.31
2019-01-30T09:27:44.344Z,14.89
2019-01-30T09:30:39.342Z,15.66
2019-01-30T09:33:29.908Z,16.05
2019-01-30T09:36:20.581Z,15.84
2019-01-30T09:39:11.380Z,15.51
2019-01-30T09:42:01.793Z,15.19
2019-01-30T09:44:52.449Z,14.93
2019-01-30T09:47:42.816Z,14.71
2019-01-30T09:50:34.314Z,14.62
2019-01-30T09:53:24.628Z,14.64
2019-01-30T09:56:15.794Z,15.19
2019-01-30T09:59:06.114Z,15.18
2019-01-30T10:01:59.243Z,15.18
2019-01-30T10:04:49.313Z,15.25
2019-01-30T10:07:39.500Z,15.21
2019-01-30T10:10:31.609Z,15.30
2019-01-30T10:13:22.188Z,15.50
2019-01-30T10:16:15.466Z,15.58
2019-01-30T10:19:05.923Z,15.31
2019-01-30T10:21:56.451Z,15.15
2019-01-30T10:24:46.729Z,14.99
2019-01-30T10:27:37.399Z,14.82
2019-01-30T10:30:30.034Z,14.68
2019-01-30T10:33:20.646Z,14.54
2019-01-30T10:36:11.202Z,14.65
2019-01-30T10:39:01.212Z,14.96
2019-01-30T10:41:51.706Z,15.21
2019-01-30T10:44:45.064Z,15.52
2019-01-30T10:47:35.229Z,15.34
2019-01-30T10:50:26.415Z,15.30
2019-01-30T10:53:17.017Z,14.97
2019-01-30T10:56:07.200Z,14.79
2019-01-30T10:58:57.462Z,14.59
2019-01-30T11:01:47.799Z,14.69
2019-01-30T11:04:38.179Z,14.51
2019-01-30T11:07:28.687Z,14.51
2019-01-30T11:10:19.714Z,14.31
2019-01-30T11:13:10.111Z,14.24
2019-01-30T11:16:01.312Z,14.45
2019-01-30T11:18:51.895Z,14.53
2019-01-30T11:21:42.324Z,14.66
2019-01-30T11:24:32.712Z,14.67
2019-01-30T11:27:22.942Z,14.53
2019-01-30T11:30:13.643Z,14.44
2019-01-30T11:33:04.253Z,14.33
2019-01-30T11:35:54.779Z,14.42
2019-01-30T11:38:45.462Z,14.33
2019-01-30T11:41:35.802Z,14.36
2019-01-30T11:44:27.957Z,14.17
2019-01-30T11:47:18.386Z,14.19
2019-01-30T11:50:10.409Z,14.30
2019-01-30T11:53:00.939Z,14.35
2019-01-30T11:55:51.871Z,14.41
2019-01-30T11:58:42.265Z,14.48
2019-01-30T12:01:32.512Z,14.68
2019-01-30T12:04:22.755Z,14.90
2019-01-30T12:07:13.200Z,14.93
2019-01-30T12:10:03.571Z,15.20
2019-01-30T12:12:54.132Z,15.41
2019-01-30T12:15:44.588Z,15.37
2019-01-30T12:18:35.236Z,15.55
2019-01-30T12:21:25.632Z,15.70
2019-01-30T12:24:16.482Z,15.61
2019-01-30T12:27:08.555Z,15.40
2019-01-30T12:29:59.237Z,15.30
2019-01-30T12:32:49.448Z,15.10
2019-01-30T12:35:39.950Z,14.94
2019-01-30T12:38:30.311Z,14.86
2019-01-30T12:41:20.601Z,14.86
2019-01-30T12:44:11.031Z,15.23
2019-01-30T12:47:01.244Z,15.18
2019-01-30T12:49:51.591Z,15.13
2019-01-30T12:52:42.088Z,14.97
2019-01-30T12:55:32.694Z,14.52
2019-01-30T12:58:23.372Z,14.48
2019-01-30T13:01:13.966Z,14.74
2019-01-30T13:04:04.668Z,14.89
2019-01-30T13:06:55.074Z,14.90
2019-01-30T13:09:45.815Z,14.96
2019-01-30T13:12:36.400Z,14.93
2019-01-30T13:15:27.703Z,15.03
2019-01-30T13:18:18.580Z,15.09
2019-01-30T13:21:09.393Z,14.86
2019-01-30T13:23:59.753Z,14.90
2019-01-30T13:26:50.113Z,14.92
2019-01-30T13:29:40.741Z,14.91
2019-01-30T13:32:33.212Z,15.19
2019-01-30T13:35:24.601Z,15.02
2019-01-30T13:38:15.253Z,15.09
2019-01-30T13:41:05.924Z,14.93
2019-01-30T13:43:56.330Z,15.13
2019-01-30T13:46:51.521Z,15.03
2019-01-30T13:49:45.206Z,15.11
2019-01-30T13:52:35.667Z,15.11
2019-01-30T13:55:26.004Z,15.08
2019-01-30T13:58:18.278Z,15.13
2019-01-30T14:01:17.305Z,15.08
2019-01-30T14:04:00.753Z,15.20
2019-01-30T14:06:51.331Z,15.16
2019-01-30T14:09:41.903Z,15.12
2019-01-30T14:12:32.744Z,15.09
2019-01-30T14:15:23.717Z,14.95
2019-01-30T14:18:14.326Z,15.10
2019-01-30T14:21:04.479Z,15.01
2019-01-30T14:23:54.995Z,14.95
2019-01-30T14:26:45.347Z,14.92
2019-01-30T14:29:36.027Z,14.91
2019-01-30T14:32:27.575Z,14.96
2019-01-30T14:35:18.005Z,14.68
2019-01-30T14:38:08.751Z,14.71
2019-01-30T14:40:59.386Z,14.60
2019-01-30T14:43:49.960Z,14.72
2019-01-30T14:46:40.783Z,14.74
2019-01-30T14:49:33.728Z,14.70
2019-01-30T14:52:23.992Z,14.70
2019-01-30T14:55:14.480Z,14.65
2019-01-30T14:58:05.322Z,14.60
2019-01-30T15:00:55.744Z,14.63
2019-01-30T15:03:47.513Z,14.58
2019-01-30T15:06:37.941Z,14.54
2019-01-30T15:09:28.164Z,14.30
2019-01-30T15:12:18.692Z,14.20
2019-01-30T15:15:11.620Z,14.25
2019-01-30T15:18:01.845Z,14.12
2019-01-30T15:20:54.654Z,13.96
2019-01-30T15:23:45.235Z,13.98
2019-01-30T15:26:35.771Z,13.94
2019-01-30T15:29:26.219Z,13.86
2019-01-30T15:32:16.901Z,13.80
2019-01-30T15:35:07.887Z,13.68
2019-01-30T15:37:58.406Z,13.65
2019-01-30T15:40:48.774Z,13.58
2019-01-30T15:43:39.031Z,13.41
2019-01-30T15:46:29.098Z,13.32
2019-01-30T15:49:19.316Z,13.26
2019-01-30T15:52:09.809Z,13.19
2019-01-30T15:55:00.130Z,13.21
2019-01-30T15:57:55.917Z,13.21
2019-01-30T16:01:09.820Z,13.13
2019-01-30T16:04:00.159Z,13.04
2019-01-30T16:06:51.169Z,12.94
2019-01-30T16:09:41.328Z,12.95
2019-01-30T16:12:32.118Z,12.90
2019-01-30T16:15:25.577Z,12.70
2019-01-30T16:18:16.153Z,12.72
2019-01-30T16:21:06.579Z,12.60
2019-01-30T16:23:57.076Z,12.57
2019-01-30T16:26:47.230Z,12.36
2019-01-30T16:29:38.491Z,12.54
2019-01-30T16:32:29.027Z,12.47
2019-01-30T16:35:25.677Z,12.34
2019-01-30T16:38:16.120Z,12.46
2019-01-30T16:41:06.674Z,12.45
2019-01-30T16:43:56.918Z,12.41
2019-01-30T16:46:47.422Z,12.40
2019-01-30T16:49:38.106Z,12.40
2019-01-30T16:52:28.598Z,12.37
2019-01-30T16:55:19.218Z,12.34
2019-01-30T16:58:11.067Z,12.38
2019-01-30T17:01:01.253Z,12.35
2019-01-30T17:03:51.622Z,12.28
2019-01-30T17:06:43.875Z,12.31
2019-01-30T17:09:34.244Z,12.30
2019-01-30T17:12:24.651Z,12.26
2019-01-30T17:15:17.724Z,12.26
2019-01-30T17:18:09.339Z,12.23
2019-01-30T17:20:59.707Z,12.29
2019-01-30T17:23:50.115Z,12.22
2019-01-30T17:26:40.210Z,12.23
2019-01-30T17:29:30.708Z,12.21
2019-01-30T17:32:21.548Z,12.09
2019-01-30T17:35:11.941Z,12.13
2019-01-30T17:38:02.757Z,12.22
2019-01-30T17:40:53.195Z,12.12
2019-01-30T17:43:43.807Z,12.24
2019-01-30T17:46:34.048Z,12.13
2019-01-30T17:49:24.607Z,12.13
2019-01-30T17:52:14.826Z,12.19
2019-01-30T17:55:05.666Z,12.08
2019-01-30T17:57:55.981Z,12.06
2019-01-30T18:01:04.586Z,12.00
2019-01-30T18:03:55.074Z,11.92
2019-01-30T18:06:46.748Z,12.02
2019-01-30T18:09:37.290Z,12.04
2019-01-30T18:12:28.001Z,12.00
2019-01-30T18:15:18.497Z,12.08
2019-01-30T18:18:09.356Z,12.05
2019-01-30T18:20:59.885Z,12.10
2019-01-30T18:23:50.112Z,12.13
2019-01-30T18:26:40.267Z,12.06
2019-01-30T18:29:30.490Z,12.15
2019-01-30T18:32:20.893Z,12.22
2019-01-30T18:35:11.553Z,12.16
2019-01-30T18:38:02.849Z,12.20
2019-01-30T18:40:53.723Z,12.22
2019-01-30T18:43:45.541Z,12.25
2019-01-30T18:46:36.439Z,12.15
2019-01-30T18:49:27.660Z,12.18
2019-01-30T18:52:20.763Z,12.29
2019-01-30T18:55:11.065Z,12.21
2019-01-30T18:58:01.644Z,12.20
2019-01-30T19:00:52.424Z,12.16
2019-01-30T19:03:43.180Z,12.13
2019-01-30T19:06:33.654Z,12.12
2019-01-30T19:09:24.001Z,12.04
2019-01-30T19:12:14.767Z,12.04
2019-01-30T19:15:05.709Z,12.06
2019-01-30T19:17:55.900Z,12.11
2019-01-30T19:20:48.193Z,12.03
2019-01-30T19:23:38.604Z,11.98
2019-01-30T19:26:28.976Z,11.88
2019-01-30T19:29:19.482Z,11.93
2019-01-30T19:32:10.022Z,11.95
2019-01-30T19:35:00.481Z,11.96
2019-01-30T19:37:51.200Z,11.90
2019-01-30T19:40:42.006Z,11.98
2019-01-30T19:43:33.940Z,12.01
2019-01-30T19:46:24.465Z,12.07
2019-01-30T19:49:14.972Z,12.13
2019-01-30T19:52:05.193Z,12.14
2019-01-30T19:54:55.370Z,12.12
2019-01-30T19:57:45.895Z,12.20
2019-01-30T20:00:39.185Z,12.15
2019-01-30T20:03:32.504Z,12.14
2019-01-30T20:06:23.035Z,12.12
2019-01-30T20:09:18.382Z,12.11
2019-01-30T20:12:09.369Z,12.12
2019-01-30T20:14:59.791Z,12.10
2019-01-30T20:17:50.567Z,12.05
2019-01-30T20:20:40.960Z,11.98
2019-01-30T20:23:31.168Z,11.92
2019-01-30T20:26:21.325Z,11.88
2019-01-30T20:29:11.898Z,11.86
2019-01-30T20:32:02.384Z,11.77
2019-01-30T20:34:52.989Z,11.74
2019-01-30T20:37:43.603Z,11.72
2019-01-30T20:40:34.113Z,11.69
2019-01-30T20:43:24.585Z,11.65
2019-01-30T20:46:15.251Z,11.64
2019-01-30T20:49:05.697Z,11.62
2019-01-30T20:51:57.413Z,11.47
2019-01-30T20:54:47.493Z,11.48
2019-01-30T20:57:40.512Z,11.42
2019-01-30T21:00:35.005Z,11.46
2019-01-30T21:03:25.680Z,11.40
2019-01-30T21:06:16.098Z,11.34
2019-01-30T21:09:09.689Z,11.34
2019-01-30T21:11:59.788Z,11.30
2019-01-30T21:14:50.298Z,11.25
2019-01-30T21:17:40.747Z,11.25
2019-01-30T21:20:31.524Z,11.26
2019-01-30T21:23:21.928Z,11.28
2019-01-30T21:26:13.152Z,11.28
2019-01-30T21:29:03.716Z,11.23
2019-01-30T21:31:54.991Z,11.23
2019-01-30T21:34:45.451Z,11.14
2019-01-30T21:37:36.179Z,11.12
2019-01-30T21:40:26.577Z,11.07
2019-01-30T21:43:17.065Z,11.06
2019-01-30T21:46:07.537Z,11.08
2019-01-30T21:48:57.929Z,11.11
2019-01-30T21:51:48.349Z,11.13
2019-01-30T21:54:38.974Z,11.11
2019-01-30T21:57:29.483Z,11.13
2019-01-30T22:00:21.585Z,11.12
2019-01-30T22:03:12.072Z,11.08
2019-01-30T22:06:02.751Z,10.83
2019-01-30T22:08:53.311Z,10.78
2019-01-30T22:11:44.043Z,10.92
2019-01-30T22:14:34.545Z,10.97
2019-01-30T22:17:24.980Z,11.01
2019-01-30T22:20:17.270Z,11.00
2019-01-30T22:23:07.739Z,10.93
2019-01-30T22:25:58.205Z,10.94
2019-01-30T22:28:48.754Z,11.00
2019-01-30T22:31:39.147Z,10.98
2019-01-30T22:34:29.658Z,11.04
2019-01-30T22:37:20.672Z,11.10
2019-01-30T22:40:11.669Z,11.12
2019-01-30T22:43:01.851Z,11.11
2019-01-30T22:45:52.256Z,11.06
2019-01-30T22:48:42.982Z,11.00
2019-01-30T22:51:33.726Z,11.01
2019-01-30T22:54:23.959Z,10.99
2019-01-30T22:57:14.864Z,11.02
2019-01-30T23:00:06.868Z,11.08
2019-01-30T23:02:59.201Z,11.12
2019-01-30T23:06:37.583Z,11.00
2019-01-30T23:10:20.867Z,10.98
2019-01-30T23:13:48.915Z,11.00
2019-01-30T23:17:27.915Z,11.05
2019-01-30T23:20:28.463Z,11.06
2019-01-30T23:23:46.738Z,11.01
2019-01-30T23:27:01.219Z,11.06
2019-01-30T23:30:13.011Z,11.04
2019-01-30T23:33:39.199Z,10.94
2019-01-30T23:37:10.821Z,10.84
2019-01-30T23:40:18.676Z,10.91
2019-01-30T23:43:58.144Z,10.77
2019-01-30T23:47:24.079Z,10.63
2019-01-30T23:50:52.768Z,10.46
2019-01-30T23:54:18.776Z,10.43
2019-01-30T23:57:36.102Z,10.51
